createdAt,value
2023-02-17T00:04:55.283Z,100.00
2023-02-17T00:09:57.927Z,100.00
2023-02-17T00:14:59.440Z,100.00
2023-02-17T00:20:01.160Z,100.00
2023-02-17T00:25:02.838Z,100.00
2023-02-17T00:30:05.072Z,100.00
2023-02-17T00:35:06.899Z,100.00
2023-02-17T00:40:08.734Z,100.00
2023-02-17T00:45:10.312Z,100.00
2023-02-17T00:50:11.848Z,100.00
2023-02-17T00:55:13.400Z,100.00
2023-02-17T01:00:15.565Z,100.00
2023-02-17T01:05:17.173Z,100.00
2023-02-17T01:10:21.314Z,100.00
2023-02-17T01:15:22.831Z,100.00
2023-02-17T01:20:24.439Z,100.00
2023-02-17T01:25:27.275Z,100.00
2023-02-17T01:30:30.771Z,100.00
2023-02-17T01:35:34.391Z,100.00
2023-02-17T01:40:36.119Z,100.00
2023-02-17T01:45:45.308Z,100.00
2023-02-17T01:50:53.896Z,100.00
2023-02-17T01:55:56.311Z,100.00
2023-02-17T02:01:01.637Z,100.00
2023-02-17T02:06:08.173Z,100.00
2023-02-17T02:11:09.796Z,100.00
2023-02-17T02:16:27.268Z,100.00
2023-02-17T02:21:37.855Z,100.00
2023-02-17T02:27:21.896Z,100.00
2023-02-17T02:32:36.327Z,100.00
2023-02-17T02:37:59.889Z,100.00
2023-02-17T02:43:03.861Z,100.00
2023-02-17T02:48:05.498Z,100.00
2023-02-17T02:53:25.672Z,100.00
2023-02-17T02:58:41.874Z,100.00
2023-02-17T03:04:15.392Z,100.00
2023-02-17T03:09:27.480Z,100.00
2023-02-17T03:14:36.601Z,100.00
2023-02-17T03:19:38.527Z,100.00
2023-02-17T03:24:40.220Z,100.00
2023-02-17T03:29:43.575Z,100.00
2023-02-17T03:34:46.018Z,100.00
2023-02-17T03:39:47.620Z,100.00
2023-02-17T03:44:49.171Z,100.00
2023-02-17T03:49:51.749Z,100.00
2023-02-17T03:54:53.270Z,100.00
2023-02-17T03:59:54.861Z,100.00
2023-02-17T04:04:56.425Z,100.00
2023-02-17T04:09:58.053Z,100.00
2023-02-17T04:14:59.590Z,100.00
2023-02-17T04:20:01.191Z,100.00
2023-02-17T04:25:02.824Z,100.00
2023-02-17T04:30:05.506Z,100.00
2023-02-17T04:35:07.576Z,100.00
2023-02-17T04:40:09.908Z,100.00
2023-02-17T04:45:12.534Z,100.00
2023-02-17T04:50:14.489Z,100.00
2023-02-17T04:55:16.057Z,100.00
2023-02-17T05:00:17.881Z,100.00
2023-02-17T05:05:19.470Z,100.00
2023-02-17T05:10:23.074Z,100.00
2023-02-17T05:15:27.476Z,100.00
2023-02-17T05:20:29.257Z,100.00
2023-02-17T05:25:31.269Z,100.00
2023-02-17T05:30:32.875Z,100.00
2023-02-17T05:35:35.863Z,100.00
2023-02-17T05:40:37.423Z,100.00
2023-02-17T05:45:38.956Z,100.00
2023-02-17T05:50:40.496Z,100.00
2023-02-17T05:55:42.069Z,100.00
2023-02-17T06:00:44.676Z,100.00
2023-02-17T06:05:46.565Z,100.00
2023-02-17T06:10:48.081Z,100.00
2023-02-17T06:15:49.664Z,100.00
2023-02-17T06:20:51.250Z,100.00
2023-02-17T06:25:53.472Z,100.00
2023-02-17T06:30:55.030Z,100.00
2023-02-17T06:35:56.698Z,100.00
2023-02-17T06:40:58.287Z,100.00
2023-02-17T06:45:59.893Z,100.00
2023-02-17T06:51:01.592Z,100.00
2023-02-17T06:56:03.391Z,100.00
2023-02-17T07:01:05.601Z,100.00
2023-02-17T07:06:07.358Z,100.00
2023-02-17T07:11:11.585Z,100.00
2023-02-17T07:16:14.609Z,100.00
2023-02-17T07:21:16.290Z,100.00
2023-02-17T07:26:17.914Z,100.00
2023-02-17T07:31:19.573Z,100.00
2023-02-17T07:36:21.270Z,100.00
2023-02-17T07:41:24.476Z,100.00
2023-02-17T07:46:27.041Z,100.00
2023-02-17T07:51:28.588Z,100.00
2023-02-17T07:56:30.141Z,100.00
2023-02-17T08:01:31.722Z,100.00
2023-02-17T08:06:33.641Z,100.00
2023-02-17T08:11:36.059Z,100.00
2023-02-17T08:16:37.624Z,100.00
2023-02-17T08:21:39.402Z,100.00
2023-02-17T08:26:40.909Z,100.00
2023-02-17T08:31:42.690Z,100.00
2023-02-17T08:36:44.301Z,100.00
2023-02-17T08:41:46.462Z,100.00
2023-02-17T08:46:49.695Z,100.00
2023-02-17T08:51:51.959Z,100.00
2023-02-17T08:56:53.614Z,100.00
2023-02-17T09:01:55.319Z,100.00
2023-02-17T09:06:57.048Z,100.00
2023-02-17T09:11:58.695Z,100.00
2023-02-17T09:17:00.306Z,100.00
2023-02-17T09:22:01.852Z,100.00
2023-02-17T09:27:03.465Z,100.00
2023-02-17T09:32:09.352Z,100.00
2023-02-17T09:37:12.400Z,100.00
2023-02-17T09:42:20.375Z,100.00
2023-02-17T09:47:26.714Z,100.00
2023-02-17T09:52:51.448Z,100.00
2023-02-17T09:58:20.358Z,100.00
2023-02-17T10:03:29.058Z,100.00
2023-02-17T10:08:39.332Z,100.00
2023-02-17T10:13:44.638Z,100.00
2023-02-17T10:18:53.587Z,100.00
2023-02-17T10:23:55.213Z,100.00
2023-02-17T10:29:07.128Z,100.00
2023-02-17T10:34:35.476Z,98.62
2023-02-17T10:39:47.006Z,98.99
2023-02-17T10:44:51.013Z,96.80
2023-02-17T10:49:55.779Z,90.22
2023-02-17T10:55:06.387Z,90.08
2023-02-17T11:00:17.780Z,89.60
2023-02-17T11:05:24.130Z,89.25
2023-02-17T11:10:40.954Z,86.23
2023-02-17T11:15:47.320Z,89.15
2023-02-17T11:20:48.922Z,91.35
2023-02-17T11:26:02.729Z,92.37
2023-02-17T11:31:04.742Z,94.35
2023-02-17T11:36:08.459Z,94.83
2023-02-17T11:41:10.718Z,94.49
2023-02-17T11:46:33.982Z,92.62
2023-02-17T11:51:53.825Z,93.90
2023-02-17T11:57:25.894Z,95.50
2023-02-17T12:03:25.852Z,93.78
2023-02-17T12:08:53.567Z,91.08
2023-02-17T12:14:10.104Z,93.10
2023-02-17T12:19:25.534Z,95.16
2023-02-17T12:24:38.684Z,93.33
2023-02-17T12:30:05.249Z,90.70
2023-02-17T12:35:23.811Z,89.77
2023-02-17T12:40:34.056Z,90.41
2023-02-17T12:45:43.085Z,88.63
2023-02-17T12:51:05.731Z,88.92
2023-02-17T12:56:33.681Z,89.42
2023-02-17T13:01:38.229Z,87.32
2023-02-17T13:06:44.619Z,85.86
2023-02-17T13:11:46.234Z,85.84
2023-02-17T13:16:47.815Z,84.33
2023-02-17T13:21:55.345Z,86.12
2023-02-17T13:26:56.896Z,86.94
2023-02-17T13:32:00.034Z,86.31
2023-02-17T13:37:16.151Z,85.44
2023-02-17T13:42:36.083Z,88.76
2023-02-17T13:47:38.978Z,87.33
2023-02-17T13:52:43.137Z,86.33
2023-02-17T13:57:44.928Z,87.87
2023-02-17T14:02:50.180Z,86.38
2023-02-17T14:07:56.956Z,89.92
2023-02-17T14:12:58.859Z,87.96
2023-02-17T14:18:00.610Z,90.27
2023-02-17T14:23:13.649Z,90.52
2023-02-17T14:28:24.161Z,91.44
2023-02-17T14:33:26.080Z,93.71
2023-02-17T14:38:41.614Z,92.86
2023-02-17T14:43:43.144Z,89.45
2023-02-17T14:48:45.648Z,89.61
2023-02-17T14:53:48.458Z,88.25
2023-02-17T14:58:50.336Z,87.60
2023-02-17T15:03:53.380Z,88.42
2023-02-17T15:08:54.946Z,90.28
2023-02-17T15:13:56.547Z,91.80
2023-02-17T15:18:58.162Z,93.85
2023-02-17T15:24:01.452Z,94.19
2023-02-17T15:29:03.151Z,96.00
2023-02-17T15:34:11.581Z,97.67
2023-02-17T15:39:19.868Z,98.45
2023-02-17T15:44:25.970Z,100.00
2023-02-17T15:49:27.522Z,100.00
2023-02-17T15:54:29.018Z,100.00
2023-02-17T15:59:30.598Z,100.00
2023-02-17T16:04:32.577Z,100.00
2023-02-17T16:09:34.221Z,100.00
2023-02-17T16:14:37.396Z,100.00
2023-02-17T16:19:38.972Z,100.00
2023-02-17T16:24:40.663Z,100.00
2023-02-17T16:29:42.940Z,100.00
2023-02-17T16:34:44.588Z,100.00
2023-02-17T16:39:46.382Z,100.00
2023-02-17T16:44:48.724Z,100.00
2023-02-17T16:49:50.362Z,100.00
2023-02-17T16:54:52.741Z,100.00
2023-02-17T16:59:54.328Z,100.00
2023-02-17T17:04:55.864Z,100.00
2023-02-17T17:10:15.372Z,100.00
2023-02-17T17:15:18.925Z,100.00
2023-02-17T17:20:23.298Z,100.00
2023-02-17T17:25:25.886Z,100.00
2023-02-17T17:30:32.761Z,100.00
2023-02-17T17:35:36.208Z,100.00
2023-02-17T17:40:37.782Z,100.00
2023-02-17T17:45:39.396Z,100.00
2023-02-17T17:50:41.338Z,100.00
2023-02-17T17:55:42.922Z,100.00
2023-02-17T18:00:44.480Z,100.00
2023-02-17T18:05:46.150Z,100.00
2023-02-17T18:10:47.757Z,100.00
2023-02-17T18:15:49.569Z,100.00
2023-02-17T18:20:51.478Z,100.00
2023-02-17T18:25:53.154Z,100.00
2023-02-17T18:30:54.803Z,100.00
2023-02-17T18:35:56.406Z,100.00
2023-02-17T18:40:57.946Z,100.00
2023-02-17T18:45:59.682Z,100.00
2023-02-17T18:51:06.657Z,100.00
2023-02-17T18:56:17.497Z,100.00
2023-02-17T19:01:24.653Z,100.00
2023-02-17T19:06:30.569Z,100.00
2023-02-17T19:11:34.218Z,100.00
2023-02-17T19:16:36.463Z,100.00
2023-02-17T19:21:38.210Z,100.00
2023-02-17T19:26:39.806Z,100.00
2023-02-17T19:31:41.457Z,100.00
2023-02-17T19:36:43.062Z,100.00
2023-02-17T19:41:44.760Z,100.00
2023-02-17T19:46:46.296Z,100.00
2023-02-17T19:51:47.891Z,100.00
2023-02-17T19:56:49.446Z,100.00
2023-02-17T20:01:51.136Z,100.00
2023-02-17T20:06:52.883Z,100.00
2023-02-17T20:11:54.382Z,100.00
2023-02-17T20:16:55.884Z,100.00
2023-02-17T20:21:57.429Z,100.00
2023-02-17T20:26:59.224Z,100.00
2023-02-17T20:32:00.885Z,100.00
2023-02-17T20:37:02.683Z,100.00
2023-02-17T20:42:05.243Z,100.00
2023-02-17T20:47:06.961Z,100.00
2023-02-17T20:52:08.466Z,100.00
2023-02-17T20:57:13.278Z,100.00
2023-02-17T21:02:14.864Z,100.00
2023-02-17T21:07:17.428Z,100.00
2023-02-17T21:12:18.968Z,100.00
2023-02-17T21:17:20.472Z,100.00
2023-02-17T21:22:21.994Z,100.00
2023-02-17T21:27:23.565Z,100.00
2023-02-17T21:32:26.012Z,100.00
2023-02-17T21:37:27.664Z,100.00
2023-02-17T21:42:29.236Z,100.00
2023-02-17T21:47:33.583Z,100.00
2023-02-17T21:52:35.165Z,100.00
2023-02-17T21:57:36.706Z,100.00
2023-02-17T22:02:38.332Z,100.00
2023-02-17T22:07:39.950Z,100.00
2023-02-17T22:12:41.612Z,100.00
2023-02-17T22:17:43.124Z,100.00
2023-02-17T22:22:44.834Z,100.00
2023-02-17T22:27:46.690Z,100.00
2023-02-17T22:32:48.260Z,100.00
2023-02-17T22:37:49.807Z,100.00
2023-02-17T22:42:51.464Z,100.00
2023-02-17T22:47:53.028Z,100.00
2023-02-17T22:52:54.610Z,100.00
2023-02-17T22:57:56.130Z,100.00
2023-02-17T23:02:57.721Z,100.00
2023-02-17T23:07:59.274Z,100.00
2023-02-17T23:13:00.815Z,100.00
2023-02-17T23:18:02.343Z,100.00
2023-02-17T23:23:03.909Z,100.00
2023-02-17T23:28:05.525Z,100.00
2023-02-17T23:33:07.403Z,100.00
2023-02-17T23:38:09.004Z,100.00
2023-02-17T23:43:10.570Z,100.00
2023-02-17T23:48:12.453Z,100.00
2023-02-17T23:53:13.982Z,100.00
2023-02-17T23:58:15.525Z,100.00
